createdAt,value
2022-12-13T05:00:33.190Z,21.67
2022-12-13T05:03:04.834Z,21.10
2022-12-13T05:05:38.651Z,21.40
2022-12-13T05:08:10.358Z,22.03
2022-12-13T05:10:42.098Z,20.20
2022-12-13T05:13:13.745Z,22.37
2022-12-13T05:15:52.061Z,21.87
2022-12-13T05:18:26.752Z,20.83
2022-12-13T05:21:01.719Z,20.50
2022-12-13T05:23:33.482Z,21.63
2022-12-13T05:26:05.439Z,20.70
2022-12-13T05:28:37.104Z,22.40
2022-12-13T05:31:23.201Z,21.27
2022-12-13T05:33:55.671Z,21.20
2022-12-13T05:36:33.363Z,20.03
2022-12-13T05:39:05.063Z,20.07
2022-12-13T05:42:02.239Z,20.53
2022-12-13T05:44:34.166Z,21.03
2022-12-13T05:47:07.150Z,20.40
2022-12-13T05:49:39.772Z,21.10
2022-12-13T05:52:16.710Z,20.67
2022-12-13T05:54:48.379Z,21.83
2022-12-13T05:57:20.031Z,22.17
2022-12-13T05:59:51.705Z,22.13
2022-12-13T06:02:24.844Z,20.60
2022-12-13T06:04:56.582Z,21.00
2022-12-13T06:07:28.224Z,21.10
2022-12-13T06:10:09.998Z,21.33
2022-12-13T06:12:43.389Z,22.50
2022-12-13T06:15:22.311Z,22.00
2022-12-13T06:17:55.948Z,22.20
2022-12-13T06:20:27.607Z,21.43
2022-12-13T06:22:59.322Z,21.67
2022-12-13T06:25:32.088Z,21.57
2022-12-13T06:28:04.232Z,21.17
2022-12-13T06:30:36.291Z,21.03
2022-12-13T06:33:15.767Z,20.60
2022-12-13T06:35:56.801Z,21.57
2022-12-13T06:38:31.665Z,21.60
2022-12-13T06:41:08.580Z,22.97
2022-12-13T06:43:41.782Z,20.50
2022-12-13T06:46:13.655Z,22.03
2022-12-13T06:48:46.743Z,19.87
2022-12-13T06:51:22.425Z,19.73
2022-12-13T06:53:54.890Z,19.37
2022-12-13T06:56:26.532Z,20.57
2022-12-13T06:59:01.137Z,18.90
2022-12-13T07:01:37.261Z,18.80
2022-12-13T07:04:28.728Z,18.40
2022-12-13T07:07:02.415Z,17.73
2022-12-13T07:09:34.219Z,18.50
2022-12-13T07:12:06.661Z,18.63
2022-12-13T07:14:41.089Z,18.23
2022-12-13T07:17:13.018Z,18.33
2022-12-13T07:20:07.058Z,18.93
2022-12-13T07:22:44.895Z,18.90
2022-12-13T07:25:28.194Z,19.27
2022-12-13T07:28:02.922Z,19.27
2022-12-13T07:30:41.189Z,19.70
2022-12-13T07:33:13.752Z,20.30
2022-12-13T07:36:01.041Z,18.97
2022-12-13T07:38:32.805Z,18.10
2022-12-13T07:41:05.018Z,19.43
2022-12-13T07:43:36.878Z,18.10
2022-12-13T07:46:09.472Z,19.50
2022-12-13T07:48:41.192Z,19.40
2022-12-13T07:51:14.166Z,19.07
2022-12-13T07:53:45.803Z,19.80
2022-12-13T07:56:17.471Z,19.17
2022-12-13T07:58:49.166Z,19.07
2022-12-13T08:01:20.856Z,19.73
2022-12-13T08:03:52.538Z,19.43
2022-12-13T08:06:25.535Z,17.10
2022-12-13T08:08:57.243Z,18.83
2022-12-13T08:11:28.934Z,18.43
2022-12-13T08:14:00.604Z,17.63
2022-12-13T08:16:32.418Z,20.13
2022-12-13T08:19:04.823Z,18.73
2022-12-13T08:21:54.449Z,19.50
2022-12-13T08:24:28.293Z,17.70
2022-12-13T08:27:01.238Z,19.00
2022-12-13T08:29:35.328Z,18.63
2022-12-13T08:32:08.624Z,18.50
2022-12-13T08:34:40.515Z,18.13
2022-12-13T08:37:13.584Z,18.43
2022-12-13T08:39:45.267Z,17.23
2022-12-13T08:42:19.745Z,22.83
2022-12-13T08:44:52.402Z,24.53
2022-12-13T08:47:26.240Z,69.97
2022-12-13T08:50:02.714Z,44.80
2022-12-13T08:52:40.457Z,35.60
2022-12-13T08:55:14.271Z,21.50
2022-12-13T08:57:45.939Z,18.67
2022-12-13T09:00:20.954Z,18.43
2022-12-13T09:02:52.638Z,19.10
2022-12-13T09:05:32.531Z,20.70
2022-12-13T09:08:24.179Z,20.23
2022-12-13T09:10:59.333Z,19.33
2022-12-13T09:13:33.218Z,17.67
2022-12-13T09:16:05.983Z,17.10
2022-12-13T09:18:46.614Z,17.70
2022-12-13T09:21:31.006Z,17.60
2022-12-13T09:24:05.412Z,17.27
2022-12-13T09:26:57.017Z,15.97
2022-12-13T09:29:29.220Z,17.07
2022-12-13T09:32:01.021Z,16.63
2022-12-13T09:34:33.394Z,18.53
2022-12-13T09:37:05.235Z,16.83
2022-12-13T09:39:38.237Z,17.70
2022-12-13T09:42:10.822Z,16.60
2022-12-13T09:44:48.260Z,15.80
2022-12-13T09:47:35.293Z,15.33
2022-12-13T09:50:15.040Z,16.27
2022-12-13T09:52:47.127Z,15.40
2022-12-13T09:55:21.221Z,15.83
2022-12-13T09:57:53.357Z,16.13
2022-12-13T10:00:25.893Z,17.53
2022-12-13T10:02:58.462Z,16.30
2022-12-13T10:05:34.374Z,16.17
2022-12-13T10:08:13.010Z,15.40
2022-12-13T10:10:46.105Z,15.57
2022-12-13T10:13:19.275Z,15.63
2022-12-13T10:15:52.860Z,16.73
2022-12-13T10:18:35.348Z,17.57
2022-12-13T10:21:09.638Z,16.87
2022-12-13T10:24:15.136Z,17.50
2022-12-13T10:26:36.989Z,15.83
2022-12-13T10:29:08.675Z,14.43
2022-12-13T10:31:41.372Z,16.03
2022-12-13T10:34:18.435Z,15.17
2022-12-13T10:36:50.150Z,14.73
2022-12-13T10:39:36.715Z,15.33
2022-12-13T10:42:13.943Z,15.70
2022-12-13T10:45:09.538Z,15.40
2022-12-13T10:47:42.096Z,14.50
2022-12-13T10:50:27.296Z,15.47
2022-12-13T10:52:59.538Z,15.40
2022-12-13T10:55:32.061Z,16.07
2022-12-13T10:58:05.859Z,15.47
2022-12-13T11:00:39.601Z,15.90
2022-12-13T11:03:13.729Z,15.23
2022-12-13T11:05:45.399Z,15.13
2022-12-13T11:08:25.112Z,14.67
2022-12-13T11:10:57.994Z,13.83
2022-12-13T11:13:34.841Z,13.77
2022-12-13T11:16:20.020Z,14.20
2022-12-13T11:18:52.947Z,12.87
2022-12-13T11:21:25.613Z,14.03
2022-12-13T11:24:01.481Z,13.03
2022-12-13T11:26:34.790Z,13.70
2022-12-13T11:29:19.774Z,13.07
2022-12-13T11:31:54.734Z,11.93
2022-12-13T11:34:32.055Z,13.00
2022-12-13T11:37:08.768Z,13.03
2022-12-13T11:39:41.552Z,12.63
2022-12-13T11:42:16.723Z,11.87
2022-12-13T11:44:55.323Z,12.03
2022-12-13T11:47:28.921Z,12.53
2022-12-13T11:50:00.566Z,12.93
2022-12-13T11:52:35.536Z,11.13
2022-12-13T11:55:11.065Z,12.10
2022-12-13T11:57:44.877Z,11.43
2022-12-13T12:00:34.639Z,13.43
2022-12-13T12:03:10.645Z,12.83
2022-12-13T12:05:45.655Z,13.10
2022-12-13T12:08:32.121Z,12.63
2022-12-13T12:11:08.772Z,13.27
2022-12-13T12:13:51.698Z,12.63
2022-12-13T12:16:30.898Z,12.47
2022-12-13T12:19:02.661Z,13.47
2022-12-13T12:22:04.971Z,12.00
2022-12-13T12:24:29.821Z,13.17
2022-12-13T12:27:11.227Z,12.53
2022-12-13T12:30:01.521Z,12.50
2022-12-13T12:32:41.253Z,12.17
2022-12-13T12:35:32.248Z,11.60
2022-12-13T12:38:11.780Z,12.37
2022-12-13T12:41:15.772Z,11.37
2022-12-13T12:43:45.418Z,11.07
2022-12-13T12:46:47.161Z,11.90
2022-12-13T12:49:45.731Z,11.23
2022-12-13T12:52:21.627Z,11.53
2022-12-13T12:54:56.328Z,11.10
2022-12-13T12:57:32.479Z,11.13
2022-12-13T13:00:05.039Z,11.13
2022-12-13T13:02:38.911Z,10.93
2022-12-13T13:05:16.607Z,10.43
2022-12-13T13:07:51.575Z,9.53
2022-12-13T13:10:26.251Z,10.77
2022-12-13T13:13:32.946Z,10.77
2022-12-13T13:15:54.219Z,9.73
2022-12-13T13:18:45.894Z,10.40
2022-12-13T13:21:49.389Z,10.03
2022-12-13T13:24:24.736Z,10.33
2022-12-13T13:26:57.110Z,9.47
2022-12-13T13:29:33.844Z,10.13
2022-12-13T13:32:29.428Z,9.73
2022-12-13T13:35:50.784Z,9.87
2022-12-13T13:39:01.636Z,9.57
2022-12-13T13:41:55.415Z,9.70
2022-12-13T13:44:59.694Z,10.10
2022-12-13T13:47:38.695Z,11.43
2022-12-13T13:50:54.343Z,11.10
2022-12-13T13:53:59.176Z,10.50
2022-12-13T13:56:45.397Z,10.80
2022-12-13T13:59:59.669Z,11.23
2022-12-13T14:03:22.395Z,9.97
2022-12-13T14:06:48.429Z,10.70
2022-12-13T14:09:53.260Z,10.07
2022-12-13T14:13:02.495Z,10.67
2022-12-13T14:16:07.331Z,10.37
2022-12-13T14:19:11.259Z,11.27
2022-12-13T14:21:52.101Z,11.17
2022-12-13T14:24:27.990Z,11.57
2022-12-13T14:27:07.696Z,12.00
2022-12-13T14:29:41.590Z,11.97
2022-12-13T14:32:27.157Z,10.70
2022-12-13T14:35:26.005Z,11.87
2022-12-13T14:37:59.425Z,11.37
2022-12-13T14:40:32.014Z,11.13
2022-12-13T14:43:03.798Z,11.83
2022-12-13T14:45:37.058Z,12.27
2022-12-13T14:48:12.450Z,10.57
2022-12-13T14:50:44.402Z,11.80
2022-12-13T14:53:23.804Z,11.40
2022-12-13T14:56:06.290Z,12.47
2022-12-13T14:58:38.059Z,12.93
2022-12-13T15:01:29.339Z,11.63
2022-12-13T15:04:18.521Z,11.27
2022-12-13T15:06:55.799Z,11.77
2022-12-13T15:09:29.069Z,12.20
2022-12-13T15:12:14.853Z,12.90
2022-12-13T15:14:58.214Z,12.23
2022-12-13T15:17:33.034Z,11.37
2022-12-13T15:20:21.473Z,11.97
2022-12-13T15:22:57.740Z,11.83
2022-12-13T15:25:29.519Z,11.00
2022-12-13T15:28:01.155Z,11.20
2022-12-13T15:30:33.876Z,11.57
2022-12-13T15:33:08.006Z,12.67
2022-12-13T15:35:39.714Z,11.87
2022-12-13T15:38:12.032Z,12.33
2022-12-13T15:40:44.186Z,11.20
2022-12-13T15:43:16.470Z,11.43
2022-12-13T15:45:49.343Z,10.97
2022-12-13T15:48:25.145Z,10.70
2022-12-13T15:51:10.264Z,11.37
2022-12-13T15:54:00.559Z,11.60
2022-12-13T15:56:33.560Z,10.17
2022-12-13T15:59:05.880Z,10.90
2022-12-13T16:01:37.887Z,11.33
2022-12-13T16:04:10.960Z,10.17
2022-12-13T16:06:42.599Z,11.05
2022-12-13T16:09:16.649Z,11.00
2022-12-13T16:11:49.833Z,10.03
2022-12-13T16:14:40.844Z,10.13
2022-12-13T16:17:23.169Z,9.23
2022-12-13T16:19:56.619Z,10.27
2022-12-13T16:22:28.267Z,9.87
2022-12-13T16:24:59.890Z,8.70
2022-12-13T16:27:31.531Z,9.87
2022-12-13T16:30:11.607Z,8.90
2022-12-13T16:33:17.659Z,9.90
2022-12-13T16:35:36.204Z,9.00
2022-12-13T16:38:09.589Z,9.67
2022-12-13T16:40:41.335Z,9.70
2022-12-13T16:43:16.051Z,8.53
2022-12-13T16:45:49.310Z,8.57
2022-12-13T16:48:21.148Z,8.87
2022-12-13T16:50:57.652Z,8.67
2022-12-13T16:53:30.233Z,8.50
2022-12-13T16:56:02.172Z,9.07
2022-12-13T16:58:33.837Z,8.53
2022-12-13T17:01:08.794Z,9.17
2022-12-13T17:03:40.974Z,9.27
2022-12-13T17:06:14.372Z,8.47
2022-12-13T17:08:46.385Z,8.33
2022-12-13T17:11:18.740Z,8.43
2022-12-13T17:13:50.807Z,8.20
2022-12-13T17:16:22.497Z,10.88
2022-12-13T17:18:54.226Z,8.37
2022-12-13T17:21:27.465Z,8.83
2022-12-13T17:23:59.730Z,8.00
2022-12-13T17:26:31.366Z,9.30
2022-12-13T17:29:03.014Z,8.90
2022-12-13T17:31:36.004Z,8.87
2022-12-13T17:34:08.389Z,8.53
2022-12-13T17:36:41.370Z,9.90
2022-12-13T17:39:13.377Z,8.73
2022-12-13T17:41:54.512Z,8.70
2022-12-13T17:44:27.388Z,9.27
2022-12-13T17:46:59.036Z,8.30
2022-12-13T17:49:30.684Z,9.20
2022-12-13T17:52:03.813Z,8.37
2022-12-13T17:54:35.484Z,9.13
2022-12-13T17:57:07.096Z,8.40
2022-12-13T17:59:42.940Z,8.40
2022-12-13T18:02:14.981Z,8.27
2022-12-13T18:04:46.723Z,9.10
2022-12-13T18:07:19.697Z,9.90
2022-12-13T18:09:51.332Z,9.60
2022-12-13T18:12:22.972Z,9.37
2022-12-13T18:14:54.617Z,9.00
2022-12-13T18:17:46.537Z,9.10
2022-12-13T18:20:18.069Z,10.10
2022-12-13T18:22:51.601Z,10.47
2022-12-13T18:25:23.348Z,9.73
2022-12-13T18:28:00.669Z,10.20
2022-12-13T18:30:32.893Z,9.13
2022-12-13T18:33:04.673Z,10.07
2022-12-13T18:35:36.292Z,8.83
2022-12-13T18:38:09.299Z,9.17
2022-12-13T18:40:40.927Z,9.57
2022-12-13T18:43:12.585Z,8.87
2022-12-13T18:45:44.268Z,9.10
2022-12-13T18:48:15.919Z,9.00
2022-12-13T18:50:48.967Z,7.70
2022-12-13T18:53:22.089Z,9.47
2022-12-13T18:55:58.299Z,8.27
2022-12-13T18:58:29.943Z,9.47
2022-12-13T19:01:01.599Z,9.50
2022-12-13T19:03:33.473Z,8.57
2022-12-13T19:06:05.787Z,8.83
2022-12-13T19:08:38.812Z,8.00
2022-12-13T19:11:10.447Z,8.87
2022-12-13T19:13:42.116Z,9.83
2022-12-13T19:16:14.731Z,8.50
2022-12-13T19:18:46.481Z,9.57
2022-12-13T19:21:19.569Z,8.97
2022-12-13T19:23:57.336Z,9.83
2022-12-13T19:26:29.317Z,9.43
2022-12-13T19:29:00.984Z,9.17
2022-12-13T19:31:32.869Z,8.73
2022-12-13T19:34:04.584Z,8.13
2022-12-13T19:36:36.221Z,9.70
2022-12-13T19:39:10.521Z,8.90
2022-12-13T19:41:42.416Z,9.07
2022-12-13T19:44:14.072Z,9.70
2022-12-13T19:46:45.741Z,9.70
2022-12-13T19:49:17.397Z,10.10
2022-12-13T19:51:49.023Z,9.80
2022-12-13T19:54:22.047Z,9.53
2022-12-13T19:56:53.671Z,10.13
2022-12-13T19:59:25.311Z,11.03
2022-12-13T20:01:56.973Z,11.07
2022-12-13T20:04:28.896Z,10.20
2022-12-13T20:07:00.528Z,11.07
2022-12-13T20:09:33.523Z,11.70
2022-12-13T20:12:05.816Z,10.43
2022-12-13T20:14:37.540Z,10.03
2022-12-13T20:17:09.157Z,9.70
2022-12-13T20:19:40.804Z,9.50
2022-12-13T20:22:13.059Z,10.50
2022-12-13T20:24:46.077Z,10.23
2022-12-13T20:27:19.685Z,10.30
2022-12-13T20:29:51.356Z,9.33
2022-12-13T20:32:25.059Z,9.43
2022-12-13T20:34:56.698Z,9.37
2022-12-13T20:37:28.352Z,9.40
2022-12-13T20:40:01.346Z,9.03
2022-12-13T20:42:33.072Z,9.87
2022-12-13T20:45:05.272Z,9.50
2022-12-13T20:47:38.057Z,9.63
2022-12-13T20:50:10.085Z,8.73
2022-12-13T20:52:45.122Z,9.63
2022-12-13T20:55:20.788Z,9.47
2022-12-13T20:57:52.430Z,9.57
2022-12-13T21:00:24.107Z,8.97
2022-12-13T21:02:55.744Z,8.57
2022-12-13T21:05:27.389Z,9.77
2022-12-13T21:07:59.033Z,9.40
2022-12-13T21:10:32.035Z,9.43
2022-12-13T21:13:03.650Z,10.63
2022-12-13T21:15:35.293Z,9.10
2022-12-13T21:18:06.920Z,9.77
2022-12-13T21:20:38.638Z,9.90
2022-12-13T21:23:10.313Z,9.70
2022-12-13T21:25:43.322Z,10.07
2022-12-13T21:28:14.942Z,9.60
2022-12-13T21:30:46.591Z,9.37
2022-12-13T21:33:18.224Z,10.93
2022-12-13T21:35:49.879Z,9.33
2022-12-13T21:38:21.688Z,9.43
2022-12-13T21:40:54.702Z,9.73
2022-12-13T21:43:26.586Z,9.80
2022-12-13T21:45:58.464Z,9.37
2022-12-13T21:48:30.356Z,9.77
2022-12-13T21:51:02.002Z,9.90
2022-12-13T21:53:33.848Z,10.17
2022-12-13T21:56:07.494Z,9.10
2022-12-13T21:58:39.150Z,9.37
2022-12-13T22:01:10.915Z,9.30
2022-12-13T22:03:42.556Z,9.77
2022-12-13T22:06:14.212Z,8.97
2022-12-13T22:08:45.839Z,8.90
2022-12-13T22:11:21.569Z,9.40
2022-12-13T22:13:53.481Z,9.30
2022-12-13T22:16:25.169Z,8.07
2022-12-13T22:18:56.918Z,8.90
2022-12-13T22:21:28.599Z,8.80
2022-12-13T22:24:00.230Z,7.83
2022-12-13T22:26:33.214Z,8.57
2022-12-13T22:29:04.843Z,8.87
2022-12-13T22:31:36.524Z,9.50
2022-12-13T22:34:08.183Z,8.23
2022-12-13T22:36:39.847Z,8.43
2022-12-13T22:39:14.841Z,8.87
2022-12-13T22:41:48.078Z,8.67
2022-12-13T22:44:20.048Z,9.30
2022-12-13T22:46:51.691Z,8.50
2022-12-13T22:49:23.331Z,8.13
2022-12-13T22:51:54.970Z,8.93
2022-12-13T22:54:26.601Z,8.10
2022-12-13T22:56:59.613Z,7.80
2022-12-13T22:59:31.261Z,7.80
